sensor_id;sensor_type;location;lat;lon;timestamp;pressure;altitude;pressure_sealevel;temperature;humidity
69153;BME280;56261;51.580;4.578;2024-02-04T00:00:17;102566.41;;;9.92;100.00
69153;BME280;56261;51.580;4.578;2024-02-04T00:02:43;102578.38;;;9.97;100.00
69153;BME280;56261;51.580;4.578;2024-02-04T00:05:09;102569.78;;;9.83;100.00
69153;BME280;56261;51.580;4.578;2024-02-04T00:07:34;102568.34;;;9.90;100.00
69153;BME280;56261;51.580;4.578;2024-02-04T00:09:59;102581.28;;;9.94;100.00
69153;BME280;56261;51.580;4.578;2024-02-04T00:12:25;102580.69;;;9.91;100.00
69153;BME280;56261;51.580;4.578;2024-02-04T00:14:50;102570.00;;;9.91;100.00
69153;BME280;56261;51.580;4.578;2024-02-04T00:17:16;102564.84;;;9.78;100.00
69153;BME280;56261;51.580;4.578;2024-02-04T00:19:42;102578.38;;;9.86;100.00
69153;BME280;56261;51.580;4.578;2024-02-04T00:22:07;102573.03;;;9.86;100.00
69153;BME280;56261;51.580;4.578;2024-02-04T00:24:33;102569.19;;;9.79;100.00
69153;BME280;56261;51.580;4.578;2024-02-04T00:26:58;102560.34;;;9.79;100.00
69153;BME280;56261;51.580;4.578;2024-02-04T00:29:24;102563.59;;;9.82;100.00
69153;BME280;56261;51.580;4.578;2024-02-04T00:31:49;102559.38;;;9.80;100.00
69153;BME280;56261;51.580;4.578;2024-02-04T00:34:14;102570.75;;;9.82;100.00
69153;BME280;56261;51.580;4.578;2024-02-04T00:36:40;102562.38;;;9.86;100.00
69153;BME280;56261;51.580;4.578;2024-02-04T00:39:05;102571.25;;;9.87;100.00
69153;BME280;56261;51.580;4.578;2024-02-04T00:41:32;102575.25;;;9.81;100.00
69153;BME280;56261;51.580;4.578;2024-02-04T00:43:58;102571.72;;;9.81;100.00
69153;BME280;56261;51.580;4.578;2024-02-04T00:46:23;102563.13;;;9.77;100.00
69153;BME280;56261;51.580;4.578;2024-02-04T00:48:48;102563.97;;;9.77;100.00
69153;BME280;56261;51.580;4.578;2024-02-04T00:51:14;102565.56;;;9.80;100.00
69153;BME280;56261;51.580;4.578;2024-02-04T00:53:42;102536.97;;;9.71;100.00
69153;BME280;56261;51.580;4.578;2024-02-04T00:56:07;102558.63;;;9.77;100.00
69153;BME280;56261;51.580;4.578;2024-02-04T00:58:33;102549.31;;;9.72;100.00
69153;BME280;56261;51.580;4.578;2024-02-04T01:00:58;102550.06;;;9.74;100.00
69153;BME280;56261;51.580;4.578;2024-02-04T01:03:23;102543.38;;;9.68;100.00
69153;BME280;56261;51.580;4.578;2024-02-04T01:05:49;102539.50;;;9.72;100.00
69153;BME280;56261;51.580;4.578;2024-02-04T01:08:14;102525.09;;;9.75;100.00
69153;BME280;56261;51.580;4.578;2024-02-04T01:10:40;102531.88;;;9.68;100.00
69153;BME280;56261;51.580;4.578;2024-02-04T01:13:05;102529.47;;;9.65;100.00
69153;BME280;56261;51.580;4.578;2024-02-04T01:15:30;102528.75;;;9.63;100.00
69153;BME280;56261;51.580;4.578;2024-02-04T01:17:56;102519.41;;;9.57;100.00
69153;BME280;56261;51.580;4.578;2024-02-04T01:20:21;102537.84;;;9.60;100.00
69153;BME280;56261;51.580;4.578;2024-02-04T01:22:47;102542.06;;;9.63;100.00
69153;BME280;56261;51.580;4.578;2024-02-04T01:25:12;102532.38;;;9.62;100.00
69153;BME280;56261;51.580;4.578;2024-02-04T01:27:37;102533.47;;;9.59;100.00
69153;BME280;56261;51.580;4.578;2024-02-04T01:30:03;102542.19;;;9.61;100.00
69153;BME280;56261;51.580;4.578;2024-02-04T01:32:29;102548.72;;;9.57;100.00
69153;BME280;56261;51.580;4.578;2024-02-04T01:34:54;102555.75;;;9.58;100.00
69153;BME280;56261;51.580;4.578;2024-02-04T01:37:19;102564.09;;;9.53;100.00
69153;BME280;56261;51.580;4.578;2024-02-04T01:39:45;102561.19;;;9.56;100.00
69153;BME280;56261;51.580;4.578;2024-02-04T01:42:10;102556.13;;;9.53;100.00
69153;BME280;56261;51.580;4.578;2024-02-04T01:44:36;102540.34;;;9.50;100.00
69153;BME280;56261;51.580;4.578;2024-02-04T01:47:01;102551.63;;;9.43;100.00
69153;BME280;56261;51.580;4.578;2024-02-04T01:49:27;102552.34;;;9.45;100.00
69153;BME280;56261;51.580;4.578;2024-02-04T01:51:53;102545.56;;;9.41;100.00
69153;BME280;56261;51.580;4.578;2024-02-04T01:54:19;102538.31;;;9.43;100.00
69153;BME280;56261;51.580;4.578;2024-02-04T01:56:46;102528.59;;;9.30;100.00
69153;BME280;56261;51.580;4.578;2024-02-04T01:59:12;102536.38;;;9.33;100.00
69153;BME280;56261;51.580;4.578;2024-02-04T02:01:38;102532.09;;;9.31;100.00
69153;BME280;56261;51.580;4.578;2024-02-04T02:04:04;102527.75;;;9.19;100.00
69153;BME280;56261;51.580;4.578;2024-02-04T02:06:31;102535.72;;;9.19;100.00
69153;BME280;56261;51.580;4.578;2024-02-04T02:08:58;102540.44;;;9.15;100.00
69153;BME280;56261;51.580;4.578;2024-02-04T02:11:47;102545.16;;;9.11;100.00
69153;BME280;56261;51.580;4.578;2024-02-04T02:14:18;102549.16;;;9.17;100.00
69153;BME280;56261;51.580;4.578;2024-02-04T02:16:45;102550.97;;;9.17;100.00
69153;BME280;56261;51.580;4.578;2024-02-04T02:22:39;102551.09;;;9.15;100.00
69153;BME280;56261;51.580;4.578;2024-02-04T02:25:10;102554.63;;;9.16;100.00
69153;BME280;56261;51.580;4.578;2024-02-04T02:27:46;102551.72;;;9.19;100.00
69153;BME280;56261;51.580;4.578;2024-02-04T02:30:12;102549.78;;;9.21;100.00
69153;BME280;56261;51.580;4.578;2024-02-04T02:32:38;102558.00;;;9.18;100.00
69153;BME280;56261;51.580;4.578;2024-02-04T02:35:03;102547.84;;;9.23;100.00
69153;BME280;56261;51.580;4.578;2024-02-04T02:40:34;102551.34;;;9.23;100.00
69153;BME280;56261;51.580;4.578;2024-02-04T02:43:03;102549.03;;;9.19;100.00
69153;BME280;56261;51.580;4.578;2024-02-04T02:45:29;102552.34;;;9.22;100.00
69153;BME280;56261;51.580;4.578;2024-02-04T02:47:55;102556.19;;;9.18;100.00
69153;BME280;56261;51.580;4.578;2024-02-04T02:50:21;102560.06;;;9.25;100.00
69153;BME280;56261;51.580;4.578;2024-02-04T02:52:47;102549.69;;;9.33;100.00
69153;BME280;56261;51.580;4.578;2024-02-04T02:55:12;102542.66;;;9.32;100.00
69153;BME280;56261;51.580;4.578;2024-02-04T02:57:38;102537.56;;;9.29;100.00
69153;BME280;56261;51.580;4.578;2024-02-04T03:00:04;102542.19;;;9.39;100.00
69153;BME280;56261;51.580;4.578;2024-02-04T03:02:31;102535.13;;;9.38;100.00
69153;BME280;56261;51.580;4.578;2024-02-04T03:04:56;102537.94;;;9.36;100.00
69153;BME280;56261;51.580;4.578;2024-02-04T03:07:22;102529.13;;;9.35;100.00
69153;BME280;56261;51.580;4.578;2024-02-04T03:09:47;102537.94;;;9.36;100.00
69153;BME280;56261;51.580;4.578;2024-02-04T03:12:13;102519.41;;;9.34;100.00
69153;BME280;56261;51.580;4.578;2024-02-04T03:14:38;102524.47;;;9.38;100.00
69153;BME280;56261;51.580;4.578;2024-02-04T03:17:04;102518.69;;;9.44;100.00
69153;BME280;56261;51.580;4.578;2024-02-04T03:19:29;102516.84;;;9.44;100.00
69153;BME280;56261;51.580;4.578;2024-02-04T03:21:54;102513.63;;;9.41;100.00
69153;BME280;56261;51.580;4.578;2024-02-04T03:24:19;102516.84;;;9.44;100.00
69153;BME280;56261;51.580;4.578;2024-02-04T03:26:45;102521.13;;;9.47;100.00
69153;BME280;56261;51.580;4.578;2024-02-04T03:29:10;102518.47;;;9.47;100.00
69153;BME280;56261;51.580;4.578;2024-02-04T03:31:36;102522.34;;;9.43;100.00
69153;BME280;56261;51.580;4.578;2024-02-04T03:34:01;102519.41;;;9.46;100.00
69153;BME280;56261;51.580;4.578;2024-02-04T03:36:27;102510.59;;;9.45;100.00
69153;BME280;56261;51.580;4.578;2024-02-04T03:38:53;102515.28;;;9.42;100.00
69153;BME280;56261;51.580;4.578;2024-02-04T03:41:18;102521.72;;;9.50;100.00
69153;BME280;56261;51.580;4.578;2024-02-04T03:43:44;102513.13;;;9.47;100.00
69153;BME280;56261;51.580;4.578;2024-02-04T03:46:16;102531.78;;;9.47;100.00
69153;BME280;56261;51.580;4.578;2024-02-04T03:48:41;102511.31;;;9.47;100.00
69153;BME280;56261;51.580;4.578;2024-02-04T03:51:07;102505.72;;;9.50;100.00
69153;BME280;56261;51.580;4.578;2024-02-04T03:53:33;102521.22;;;9.56;100.00
69153;BME280;56261;51.580;4.578;2024-02-04T03:55:58;102506.72;;;9.49;100.00
69153;BME280;56261;51.580;4.578;2024-02-04T03:58:24;102501.97;;;9.53;100.00
69153;BME280;56261;51.580;4.578;2024-02-04T04:00:55;102511.31;;;9.59;100.00
69153;BME280;56261;51.580;4.578;2024-02-04T04:03:21;102515.19;;;9.54;100.00
69153;BME280;56261;51.580;4.578;2024-02-04T04:05:46;102521.84;;;9.60;100.00
69153;BME280;56261;51.580;4.578;2024-02-04T04:08:11;102524.00;;;9.66;100.00
69153;BME280;56261;51.580;4.578;2024-02-04T04:10:37;102521.13;;;9.58;100.00
69153;BME280;56261;51.580;4.578;2024-02-04T04:13:03;102508.16;;;9.53;100.00
69153;BME280;56261;51.580;4.578;2024-02-04T04:15:28;102510.94;;;9.52;100.00
69153;BME280;56261;51.580;4.578;2024-02-04T04:17:54;102514.34;;;9.54;100.00
69153;BME280;56261;51.580;4.578;2024-02-04T04:20:19;102508.28;;;9.52;100.00
69153;BME280;56261;51.580;4.578;2024-02-04T04:22:44;102511.91;;;9.51;100.00
69153;BME280;56261;51.580;4.578;2024-02-04T04:25:10;102490.47;;;9.52;100.00
69153;BME280;56261;51.580;4.578;2024-02-04T04:27:35;102498.25;;;9.55;100.00
69153;BME280;56261;51.580;4.578;2024-02-04T04:30:00;102486.13;;;9.51;100.00
69153;BME280;56261;51.580;4.578;2024-02-04T04:32:26;102467.59;;;9.50;100.00
69153;BME280;56261;51.580;4.578;2024-02-04T04:34:51;102463.75;;;9.43;100.00
69153;BME280;56261;51.580;4.578;2024-02-04T04:37:16;102456.22;;;9.48;100.00
69153;BME280;56261;51.580;4.578;2024-02-04T04:39:42;102467.72;;;9.48;100.00
69153;BME280;56261;51.580;4.578;2024-02-04T04:42:07;102468.69;;;9.59;100.00
69153;BME280;56261;51.580;4.578;2024-02-04T04:44:32;102473.41;;;9.55;100.00
69153;BME280;56261;51.580;4.578;2024-02-04T04:46:58;102463.38;;;9.47;100.00
69153;BME280;56261;51.580;4.578;2024-02-04T04:49:23;102449.06;;;9.48;100.00
69153;BME280;56261;51.580;4.578;2024-02-04T04:51:48;102466.50;;;9.52;100.00
69153;BME280;56261;51.580;4.578;2024-02-04T04:54:14;102479.09;;;9.50;100.00
69153;BME280;56261;51.580;4.578;2024-02-04T04:56:40;102475.47;;;9.51;100.00
69153;BME280;56261;51.580;4.578;2024-02-04T04:59:06;102466.50;;;9.52;100.00
69153;BME280;56261;51.580;4.578;2024-02-04T05:01:32;102467.13;;;9.56;100.00
69153;BME280;56261;51.580;4.578;2024-02-04T05:03:57;102472.94;;;9.50;100.00
69153;BME280;56261;51.580;4.578;2024-02-04T05:06:23;102491.47;;;9.51;100.00
69153;BME280;56261;51.580;4.578;2024-02-04T05:08:48;102488.78;;;9.51;100.00
69153;BME280;56261;51.580;4.578;2024-02-04T05:11:13;102485.16;;;9.52;100.00
69153;BME280;56261;51.580;4.578;2024-02-04T05:13:39;102471.38;;;9.47;100.00
69153;BME280;56261;51.580;4.578;2024-02-04T05:16:05;102473.03;;;9.48;100.00
69153;BME280;56261;51.580;4.578;2024-02-04T05:18:30;102477.16;;;9.52;100.00
69153;BME280;56261;51.580;4.578;2024-02-04T05:20:55;102478.97;;;9.52;100.00
69153;BME280;56261;51.580;4.578;2024-02-04T05:23:21;102479.81;;;9.52;100.00
69153;BME280;56261;51.580;4.578;2024-02-04T05:25:47;102487.09;;;9.50;100.00
69153;BME280;56261;51.580;4.578;2024-02-04T05:28:12;102483.84;;;9.47;100.00
69153;BME280;56261;51.580;4.578;2024-02-04T05:30:38;102494.34;;;9.48;100.00
69153;BME280;56261;51.580;4.578;2024-02-04T05:33:03;102480.91;;;9.50;100.00
69153;BME280;56261;51.580;4.578;2024-02-04T05:35:28;102485.88;;;9.54;100.00
69153;BME280;56261;51.580;4.578;2024-02-04T05:37:54;102482.50;;;9.52;100.00
69153;BME280;56261;51.580;4.578;2024-02-04T05:40:19;102474.50;;;9.52;100.00
69153;BME280;56261;51.580;4.578;2024-02-04T05:42:45;102461.28;;;9.51;100.00
69153;BME280;56261;51.580;4.578;2024-02-04T05:45:11;102465.66;;;9.52;100.00
69153;BME280;56261;51.580;4.578;2024-02-04T05:47:37;102458.63;;;9.51;100.00
69153;BME280;56261;51.580;4.578;2024-02-04T05:50:02;102449.94;;;9.49;100.00
69153;BME280;56261;51.580;4.578;2024-02-04T05:52:28;102444.25;;;9.42;100.00
69153;BME280;56261;51.580;4.578;2024-02-04T05:54:53;102449.94;;;9.49;100.00
69153;BME280;56261;51.580;4.578;2024-02-04T05:57:18;102450.91;;;9.48;100.00
69153;BME280;56261;51.580;4.578;2024-02-04T05:59:45;102451.75;;;9.48;100.00
69153;BME280;56261;51.580;4.578;2024-02-04T06:02:13;102448.22;;;9.48;100.00
69153;BME280;56261;51.580;4.578;2024-02-04T06:04:38;102455.28;;;9.49;100.00
69153;BME280;56261;51.580;4.578;2024-02-04T06:07:05;102456.09;;;9.49;100.00
69153;BME280;56261;51.580;4.578;2024-02-04T06:09:32;102447.75;;;9.43;100.00
69153;BME280;56261;51.580;4.578;2024-02-04T06:11:57;102444.13;;;9.44;100.00
69153;BME280;56261;51.580;4.578;2024-02-04T06:14:23;102441.34;;;9.45;100.00
69153;BME280;56261;51.580;4.578;2024-02-04T06:16:48;102443.38;;;9.42;100.00
69153;BME280;56261;51.580;4.578;2024-02-04T06:19:13;102441.59;;;9.42;100.00
69153;BME280;56261;51.580;4.578;2024-02-04T06:21:40;102445.69;;;9.46;100.00
69153;BME280;56261;51.580;4.578;2024-02-04T06:24:05;102450.53;;;9.41;100.00
69153;BME280;56261;51.580;4.578;2024-02-04T06:26:31;102447.03;;;9.41;100.00
69153;BME280;56261;51.580;4.578;2024-02-04T06:28:56;102443.88;;;9.47;100.00
69153;BME280;56261;51.580;4.578;2024-02-04T06:31:22;102441.22;;;9.47;100.00
69153;BME280;56261;51.580;4.578;2024-02-04T06:33:47;102438.06;;;9.42;100.00
69153;BME280;56261;51.580;4.578;2024-02-04T06:36:12;102419.69;;;9.39;100.00
69153;BME280;56261;51.580;4.578;2024-02-04T06:38:38;102419.31;;;9.43;100.00
69153;BME280;56261;51.580;4.578;2024-02-04T06:41:03;102435.41;;;9.42;100.00
69153;BME280;56261;51.580;4.578;2024-02-04T06:43:29;102437.94;;;9.43;100.00
69153;BME280;56261;51.580;4.578;2024-02-04T06:45:54;102436.38;;;9.41;100.00
69153;BME280;56261;51.580;4.578;2024-02-04T06:48:19;102427.28;;;9.43;100.00
69153;BME280;56261;51.580;4.578;2024-02-04T06:50:45;102437.34;;;9.40;100.00
69153;BME280;56261;51.580;4.578;2024-02-04T06:53:13;102434.66;;;9.40;100.00
69153;BME280;56261;51.580;4.578;2024-02-04T06:55:38;102434.44;;;9.43;100.00
69153;BME280;56261;51.580;4.578;2024-02-04T06:58:03;102442.19;;;9.46;100.00
69153;BME280;56261;51.580;4.578;2024-02-04T07:00:29;102431.63;;;9.44;100.00
69153;BME280;56261;51.580;4.578;2024-02-04T07:02:55;102438.56;;;9.47;100.00
69153;BME280;56261;51.580;4.578;2024-02-04T07:05:20;102436.28;;;9.42;100.00
69153;BME280;56261;51.580;4.578;2024-02-04T07:07:47;102430.56;;;9.47;100.00
69153;BME280;56261;51.580;4.578;2024-02-04T07:10:13;102434.31;;;9.44;100.00
69153;BME280;56261;51.580;4.578;2024-02-04T07:12:39;102415.53;;;9.46;100.00
69153;BME280;56261;51.580;4.578;2024-02-04T07:15:04;102419.06;;;9.46;100.00
69153;BME280;56261;51.580;4.578;2024-02-04T07:17:30;102415.06;;;9.52;100.00
69153;BME280;56261;51.580;4.578;2024-02-04T07:19:55;102417.00;;;9.50;100.00
69153;BME280;56261;51.580;4.578;2024-02-04T07:22:21;102415.66;;;9.44;100.00
69153;BME280;56261;51.580;4.578;2024-02-04T07:24:46;102427.75;;;9.48;100.00
69153;BME280;56261;51.580;4.578;2024-02-04T07:27:11;102418.81;;;9.49;100.00
69153;BME280;56261;51.580;4.578;2024-02-04T07:29:37;102425.72;;;9.52;100.00
69153;BME280;56261;51.580;4.578;2024-02-04T07:32:02;102414.44;;;9.48;100.00
69153;BME280;56261;51.580;4.578;2024-02-04T07:34:28;102419.28;;;9.54;100.00
69153;BME280;56261;51.580;4.578;2024-02-04T07:36:53;102419.66;;;9.50;100.00
69153;BME280;56261;51.580;4.578;2024-02-04T07:39:18;102415.31;;;9.49;100.00
69153;BME280;56261;51.580;4.578;2024-02-04T07:41:44;102422.22;;;9.51;100.00
69153;BME280;56261;51.580;4.578;2024-02-04T07:44:09;102419.41;;;9.53;100.00
69153;BME280;56261;51.580;4.578;2024-02-04T07:46:34;102426.56;;;9.52;100.00
69153;BME280;56261;51.580;4.578;2024-02-04T07:49:00;102414.34;;;9.50;100.00
69153;BME280;56261;51.580;4.578;2024-02-04T07:51:25;102421.94;;;9.54;100.00
69153;BME280;56261;51.580;4.578;2024-02-04T07:53:50;102415.78;;;9.54;100.00
69153;BME280;56261;51.580;4.578;2024-02-04T07:56:16;102411.41;;;9.53;100.00
69153;BME280;56261;51.580;4.578;2024-02-04T07:58:41;102413.59;;;9.59;100.00
69153;BME280;56261;51.580;4.578;2024-02-04T08:01:07;102408.53;;;9.56;100.00
69153;BME280;56261;51.580;4.578;2024-02-04T08:03:32;102399.69;;;9.55;100.00
69153;BME280;56261;51.580;4.578;2024-02-04T08:05:58;102405.84;;;9.56;100.00
69153;BME280;56261;51.580;4.578;2024-02-04T08:08:23;102409.97;;;9.60;100.00
69153;BME280;56261;51.580;4.578;2024-02-04T08:10:48;102384.91;;;9.63;100.00
69153;BME280;56261;51.580;4.578;2024-02-04T08:13:14;102399.88;;;9.64;100.00
69153;BME280;56261;51.580;4.578;2024-02-04T08:15:39;102401.72;;;9.63;100.00
69153;BME280;56261;51.580;4.578;2024-02-04T08:18:05;102408.72;;;9.64;100.00
69153;BME280;56261;51.580;4.578;2024-02-04T08:20:30;102417.44;;;9.66;100.00
69153;BME280;56261;51.580;4.578;2024-02-04T08:22:55;102398.56;;;9.69;100.00
69153;BME280;56261;51.580;4.578;2024-02-04T08:25:21;102409.94;;;9.71;100.00
69153;BME280;56261;51.580;4.578;2024-02-04T08:27:46;102408.50;;;9.67;100.00
69153;BME280;56261;51.580;4.578;2024-02-04T08:30:12;102427.34;;;9.75;100.00
69153;BME280;56261;51.580;4.578;2024-02-04T08:32:38;102427.22;;;9.77;100.00
69153;BME280;56261;51.580;4.578;2024-02-04T08:35:04;102426.16;;;9.68;100.00
69153;BME280;56261;51.580;4.578;2024-02-04T08:37:31;102422.53;;;9.69;100.00
69153;BME280;56261;51.580;4.578;2024-02-04T08:39:57;102424.22;;;9.70;100.00
69153;BME280;56261;51.580;4.578;2024-02-04T08:42:22;102420.06;;;9.77;100.00
69153;BME280;56261;51.580;4.578;2024-02-04T08:44:47;102418.78;;;9.72;100.00
69153;BME280;56261;51.580;4.578;2024-02-04T08:47:13;102428.78;;;9.80;100.00
69153;BME280;56261;51.580;4.578;2024-02-04T08:49:41;102422.00;;;9.75;100.00
69153;BME280;56261;51.580;4.578;2024-02-04T08:52:06;102422.50;;;9.81;100.00
69153;BME280;56261;51.580;4.578;2024-02-04T08:54:32;102422.50;;;9.81;100.00
69153;BME280;56261;51.580;4.578;2024-02-04T08:56:57;102426.84;;;9.82;100.00
69153;BME280;56261;51.580;4.578;2024-02-04T08:59:22;102429.50;;;9.82;100.00
69153;BME280;56261;51.580;4.578;2024-02-04T09:01:49;102429.78;;;9.79;100.00
69153;BME280;56261;51.580;4.578;2024-02-04T09:04:15;102432.19;;;9.82;100.00
69153;BME280;56261;51.580;4.578;2024-02-04T09:06:40;102423.84;;;9.75;100.00
69153;BME280;56261;51.580;4.578;2024-02-04T09:09:06;102428.56;;;9.83;100.00
69153;BME280;56261;51.580;4.578;2024-02-04T09:11:33;102423.22;;;9.83;100.00
69153;BME280;56261;51.580;4.578;2024-02-04T09:13:58;102417.75;;;9.84;100.00
69153;BME280;56261;51.580;4.578;2024-02-04T09:16:24;102420.31;;;9.86;100.00
69153;BME280;56261;51.580;4.578;2024-02-04T09:18:49;102402.88;;;9.82;100.00
69153;BME280;56261;51.580;4.578;2024-02-04T09:21:15;102395.59;;;9.84;100.00
69153;BME280;56261;51.580;4.578;2024-02-04T09:23:40;102404.44;;;9.84;100.00
69153;BME280;56261;51.580;4.578;2024-02-04T09:26:05;102401.53;;;9.87;100.00
69153;BME280;56261;51.580;4.578;2024-02-04T09:28:31;102404.19;;;9.87;100.00
69153;BME280;56261;51.580;4.578;2024-02-04T09:30:57;102391.81;;;9.86;100.00
69153;BME280;56261;51.580;4.578;2024-02-04T09:33:22;102376.94;;;9.84;100.00
69153;BME280;56261;51.580;4.578;2024-02-04T09:35:47;102391.09;;;9.84;100.00
69153;BME280;56261;51.580;4.578;2024-02-04T09:38:14;102392.81;;;9.85;100.00
69153;BME280;56261;51.580;4.578;2024-02-04T09:40:40;102399.97;;;9.85;100.00
69153;BME280;56261;51.580;4.578;2024-02-04T09:43:06;102414.47;;;9.92;100.00
69153;BME280;56261;51.580;4.578;2024-02-04T09:45:33;102403.94;;;9.90;100.00
69153;BME280;56261;51.580;4.578;2024-02-04T09:48:00;102397.75;;;9.90;100.00
69153;BME280;56261;51.580;4.578;2024-02-04T09:50:26;102422.84;;;9.87;100.00
69153;BME280;56261;51.580;4.578;2024-02-04T09:52:55;102423.56;;;9.89;100.00
69153;BME280;56261;51.580;4.578;2024-02-04T09:55:24;102419.09;;;9.90;100.00
69153;BME280;56261;51.580;4.578;2024-02-04T09:57:50;102420.75;;;9.91;100.00
69153;BME280;56261;51.580;4.578;2024-02-04T10:00:18;102411.44;;;9.96;100.00
69153;BME280;56261;51.580;4.578;2024-02-04T10:02:44;102400.31;;;9.91;100.00
69153;BME280;56261;51.580;4.578;2024-02-04T10:05:10;102400.66;;;9.98;100.00
69153;BME280;56261;51.580;4.578;2024-02-04T10:07:36;102393.00;;;9.93;100.00
69153;BME280;56261;51.580;4.578;2024-02-04T10:10:02;102399.06;;;9.95;100.00
69153;BME280;56261;51.580;4.578;2024-02-04T10:12:27;102398.09;;;9.96;100.00
69153;BME280;56261;51.580;4.578;2024-02-04T10:14:53;102398.69;;;10.00;100.00
69153;BME280;56261;51.580;4.578;2024-02-04T10:17:19;102402.31;;;9.99;100.00
69153;BME280;56261;51.580;4.578;2024-02-04T10:19:47;102403.66;;;10.05;100.00
69153;BME280;56261;51.580;4.578;2024-02-04T10:22:13;102402.41;;;10.09;100.00
69153;BME280;56261;51.580;4.578;2024-02-04T10:24:39;102411.72;;;10.14;100.00
69153;BME280;56261;51.580;4.578;2024-02-04T10:27:04;102405.16;;;10.18;100.00
69153;BME280;56261;51.580;4.578;2024-02-04T10:29:30;102404.44;;;10.16;100.00
69153;BME280;56261;51.580;4.578;2024-02-04T10:31:56;102413.50;;;10.25;100.00
69153;BME280;56261;51.580;4.578;2024-02-04T10:34:25;102401.63;;;10.29;100.00
69153;BME280;56261;51.580;4.578;2024-02-04T10:36:51;102397.34;;;10.27;100.00
69153;BME280;56261;51.580;4.578;2024-02-04T10:39:17;102406.56;;;10.34;100.00
69153;BME280;56261;51.580;4.578;2024-02-04T10:41:50;102395.25;;;10.42;100.00
69153;BME280;56261;51.580;4.578;2024-02-04T10:44:23;102394.00;;;10.46;100.00
69153;BME280;56261;51.580;4.578;2024-02-04T10:46:49;102395.56;;;10.48;100.00
69153;BME280;56261;51.580;4.578;2024-02-04T10:49:17;102395.19;;;10.53;100.00
69153;BME280;56261;51.580;4.578;2024-02-04T10:51:44;102394.06;;;10.55;100.00
69153;BME280;56261;51.580;4.578;2024-02-04T10:54:11;102405.66;;;10.66;100.00
69153;BME280;56261;51.580;4.578;2024-02-04T10:56:43;102409.56;;;10.62;100.00
69153;BME280;56261;51.580;4.578;2024-02-04T10:59:14;102398.94;;;10.71;100.00
69153;BME280;56261;51.580;4.578;2024-02-04T11:01:43;102400.50;;;10.74;100.00
69153;BME280;56261;51.580;4.578;2024-02-04T11:04:11;102396.56;;;10.78;100.00
69153;BME280;56261;51.580;4.578;2024-02-04T11:06:40;102405.06;;;10.83;100.00
69153;BME280;56261;51.580;4.578;2024-02-04T11:09:08;102389.88;;;10.84;100.00
69153;BME280;56261;51.580;4.578;2024-02-04T11:11:38;102383.50;;;10.75;100.00
69153;BME280;56261;51.580;4.578;2024-02-04T11:14:06;102400.28;;;10.87;100.00
69153;BME280;56261;51.580;4.578;2024-02-04T11:22:14;102378.69;;;10.99;100.00
69153;BME280;56261;51.580;4.578;2024-02-04T11:24:59;102375.91;;;11.01;100.00
69153;BME280;56261;51.580;4.578;2024-02-04T11:27:27;102378.41;;;11.02;100.00
69153;BME280;56261;51.580;4.578;2024-02-04T11:29:52;102386.31;;;11.14;100.00
69153;BME280;56261;51.580;4.578;2024-02-04T11:32:18;102383.81;;;11.12;100.00
69153;BME280;56261;51.580;4.578;2024-02-04T11:34:46;102380.59;;;11.18;100.00
69153;BME280;56261;51.580;4.578;2024-02-04T11:37:18;102373.03;;;11.24;100.00
69153;BME280;56261;51.580;4.578;2024-02-04T11:39:50;102360.53;;;11.34;100.00
69153;BME280;56261;51.580;4.578;2024-02-04T11:42:16;102354.63;;;11.30;100.00
69153;BME280;56261;51.580;4.578;2024-02-04T11:44:42;102360.53;;;11.34;100.00
69153;BME280;56261;51.580;4.578;2024-02-04T11:47:07;102359.16;;;11.49;100.00
69153;BME280;56261;51.580;4.578;2024-02-04T11:49:33;102353.25;;;11.46;100.00
69153;BME280;56261;51.580;4.578;2024-02-04T11:51:59;102364.06;;;11.54;100.00
69153;BME280;56261;51.580;4.578;2024-02-04T11:54:25;102362.53;;;11.51;100.00
69153;BME280;56261;51.580;4.578;2024-02-04T11:56:51;102354.84;;;11.68;100.00
69153;BME280;56261;51.580;4.578;2024-02-04T11:59:19;102354.69;;;11.59;100.00
69153;BME280;56261;51.580;4.578;2024-02-04T12:01:47;102345.41;;;11.63;100.00
69153;BME280;56261;51.580;4.578;2024-02-04T12:04:15;102347.66;;;11.78;100.00
69153;BME280;56261;51.580;4.578;2024-02-04T12:06:41;102346.84;;;11.97;100.00
69153;BME280;56261;51.580;4.578;2024-02-04T12:09:10;102343.75;;;12.01;100.00
69153;BME280;56261;51.580;4.578;2024-02-04T12:11:36;102355.69;;;12.07;100.00
69153;BME280;56261;51.580;4.578;2024-02-04T12:14:04;102360.19;;;12.16;100.00
69153;BME280;56261;51.580;4.578;2024-02-04T12:16:31;102363.28;;;12.21;100.00
69153;BME280;56261;51.580;4.578;2024-02-04T12:19:02;102356.09;;;12.32;100.00
69153;BME280;56261;51.580;4.578;2024-02-04T12:21:31;102365.66;;;12.44;100.00
69153;BME280;56261;51.580;4.578;2024-02-04T12:23:58;102356.09;;;12.41;100.00
69153;BME280;56261;51.580;4.578;2024-02-04T12:26:23;102364.81;;;12.34;100.00
69153;BME280;56261;51.580;4.578;2024-02-04T12:28:50;102362.56;;;12.29;100.00
69153;BME280;56261;51.580;4.578;2024-02-04T12:31:25;102365.25;;;12.19;100.00
69153;BME280;56261;51.580;4.578;2024-02-04T12:33:55;102358.22;;;12.18;100.00
69153;BME280;56261;51.580;4.578;2024-02-04T12:36:25;102339.66;;;12.17;100.00
69153;BME280;56261;51.580;4.578;2024-02-04T12:39:01;102345.28;;;12.14;100.00
69153;BME280;56261;51.580;4.578;2024-02-04T12:41:28;102349.19;;;12.29;100.00
69153;BME280;56261;51.580;4.578;2024-02-04T12:43:58;102356.09;;;12.32;100.00
69153;BME280;56261;51.580;4.578;2024-02-04T12:46:25;102359.47;;;12.24;100.00
69153;BME280;56261;51.580;4.578;2024-02-04T12:48:56;102347.09;;;12.33;100.00
69153;BME280;56261;51.580;4.578;2024-02-04T12:51:29;102354.09;;;12.34;100.00
69153;BME280;56261;51.580;4.578;2024-02-04T12:54:08;102351.84;;;12.49;100.00